createdAt,value
2022-12-08T00:02:01.462Z,4.30
2022-12-08T00:04:28.399Z,6.03
2022-12-08T00:07:13.875Z,6.90
2022-12-08T00:09:42.126Z,4.07
2022-12-08T00:12:15.344Z,6.07
2022-12-08T00:14:47.624Z,2.37
2022-12-08T00:17:16.687Z,2.90
2022-12-08T00:19:44.014Z,2.83
2022-12-08T00:22:12.571Z,4.17
2022-12-08T00:24:41.343Z,4.93
2022-12-08T00:27:09.281Z,4.73
2022-12-08T00:29:36.575Z,3.83
2022-12-08T00:32:03.585Z,4.37
2022-12-08T00:34:31.423Z,4.80
2022-12-08T00:36:58.314Z,3.33
2022-12-08T00:39:25.124Z,2.83
2022-12-08T00:42:11.655Z,8.50
2022-12-08T00:44:39.176Z,1.43
2022-12-08T00:47:06.043Z,8.73
2022-12-08T00:49:33.025Z,2.57
2022-12-08T00:51:59.900Z,3.20
2022-12-08T00:54:26.734Z,5.13
2022-12-08T00:56:53.620Z,3.67
2022-12-08T00:59:20.577Z,3.50
2022-12-08T01:01:48.042Z,8.40
2022-12-08T01:04:17.787Z,4.87
2022-12-08T01:06:45.424Z,3.80
2022-12-08T01:09:13.511Z,7.13
2022-12-08T01:11:40.444Z,7.37
2022-12-08T01:14:07.194Z,7.40
2022-12-08T01:16:37.151Z,9.97
2022-12-08T01:19:04.538Z,6.10
2022-12-08T01:21:31.423Z,7.57
2022-12-08T01:24:00.435Z,3.47
2022-12-08T01:26:27.264Z,4.33
2022-12-08T01:28:54.131Z,2.07
2022-12-08T01:31:21.861Z,6.67
2022-12-08T01:33:49.102Z,6.57
2022-12-08T01:36:26.824Z,3.33
2022-12-08T01:38:56.567Z,3.83
2022-12-08T01:41:26.248Z,5.80
2022-12-08T01:44:00.911Z,6.43
2022-12-08T01:46:30.094Z,5.27
2022-12-08T01:49:05.734Z,5.27
2022-12-08T01:51:37.655Z,2.20
2022-12-08T01:54:07.113Z,3.17
2022-12-08T01:56:43.247Z,8.37
2022-12-08T01:59:12.544Z,4.37
2022-12-08T02:01:40.004Z,4.57
2022-12-08T02:04:25.327Z,8.67
2022-12-08T02:06:53.781Z,7.80
2022-12-08T02:09:21.479Z,5.73
2022-12-08T02:11:49.887Z,5.30
2022-12-08T02:14:16.835Z,3.03
2022-12-08T02:16:55.800Z,4.83
2022-12-08T02:19:42.277Z,7.13
2022-12-08T02:22:44.556Z,3.43
2022-12-08T02:25:36.236Z,3.43
2022-12-08T02:28:28.959Z,1.40
2022-12-08T02:31:12.222Z,5.43
2022-12-08T02:33:42.119Z,3.93
2022-12-08T02:36:32.108Z,8.77
2022-12-08T02:39:46.007Z,6.67
2022-12-08T02:42:26.853Z,7.40
2022-12-08T02:45:17.377Z,4.23
2022-12-08T02:47:44.960Z,6.37
2022-12-08T02:50:12.890Z,2.90
2022-12-08T02:52:45.192Z,7.87
2022-12-08T02:55:40.154Z,10.80
2022-12-08T02:58:31.917Z,4.23
2022-12-08T03:01:23.461Z,5.67
2022-12-08T03:04:16.411Z,2.77
2022-12-08T03:06:57.264Z,9.60
2022-12-08T03:09:42.699Z,5.07
2022-12-08T03:12:30.741Z,3.73
2022-12-08T03:15:02.757Z,6.93
2022-12-08T03:20:21.068Z,0.90
2022-12-08T03:22:49.685Z,7.57
2022-12-08T03:25:22.057Z,5.60
2022-12-08T03:27:50.571Z,7.20
2022-12-08T03:30:17.723Z,3.87
2022-12-08T03:35:41.553Z,6.20
2022-12-08T03:38:12.113Z,8.67
2022-12-08T03:43:24.391Z,2.97
2022-12-08T03:45:51.138Z,2.67
2022-12-08T03:48:17.946Z,5.17
2022-12-08T03:50:44.675Z,4.17
2022-12-08T03:55:55.758Z,14.77
2022-12-08T03:58:22.520Z,5.00
2022-12-08T04:00:49.350Z,5.77
2022-12-08T04:03:16.186Z,4.80
2022-12-08T04:05:43.137Z,2.83
2022-12-08T04:08:09.951Z,5.77
2022-12-08T04:10:36.796Z,4.03
2022-12-08T04:13:03.744Z,2.87
2022-12-08T04:15:30.531Z,3.77
2022-12-08T04:17:57.291Z,3.83
2022-12-08T04:20:24.125Z,5.10
2022-12-08T04:22:50.883Z,4.30
2022-12-08T04:25:17.820Z,4.03
2022-12-08T04:27:44.581Z,4.97
2022-12-08T04:30:11.784Z,3.80
2022-12-08T04:32:41.697Z,3.43
2022-12-08T04:35:12.689Z,7.10
2022-12-08T04:37:39.467Z,4.27
2022-12-08T04:40:07.084Z,4.60
2022-12-08T04:42:34.265Z,7.80
2022-12-08T04:45:01.105Z,4.40
2022-12-08T04:47:27.897Z,5.10
2022-12-08T04:49:54.702Z,3.80
2022-12-08T04:52:21.772Z,4.13
2022-12-08T04:54:48.732Z,5.17
2022-12-08T04:57:15.972Z,3.23
2022-12-08T04:59:42.793Z,4.10
2022-12-08T05:02:09.898Z,4.43
2022-12-08T05:04:36.843Z,2.17
2022-12-08T05:07:03.688Z,4.30
2022-12-08T05:09:30.634Z,2.97
2022-12-08T05:11:57.453Z,3.57
2022-12-08T05:14:24.383Z,6.03
2022-12-08T05:16:51.198Z,6.80
2022-12-08T05:19:18.544Z,4.30
2022-12-08T05:21:45.870Z,3.00
2022-12-08T05:24:31.418Z,3.23
2022-12-08T05:26:58.263Z,4.27
2022-12-08T05:29:25.165Z,5.93
2022-12-08T05:31:52.049Z,3.07
2022-12-08T05:34:19.057Z,2.43
2022-12-08T05:36:45.917Z,2.17
2022-12-08T05:39:13.553Z,1.93
2022-12-08T05:41:40.571Z,7.80
2022-12-08T05:44:07.451Z,1.50
2022-12-08T05:46:34.391Z,4.57
2022-12-08T05:49:01.689Z,4.13
2022-12-08T05:51:28.898Z,2.03
2022-12-08T05:53:56.560Z,1.90
2022-12-08T05:56:23.794Z,2.83
2022-12-08T05:58:50.909Z,0.50
2022-12-08T06:04:11.902Z,2.30
2022-12-08T06:06:38.684Z,1.97
2022-12-08T06:09:06.692Z,3.33
2022-12-08T06:11:33.669Z,1.10
2022-12-08T06:14:00.916Z,1.73
2022-12-08T06:16:28.933Z,2.83
2022-12-08T06:18:57.055Z,2.97
2022-12-08T06:21:24.014Z,0.90
2022-12-08T06:23:54.932Z,0.40
2022-12-08T06:26:22.185Z,1.07
2022-12-08T06:28:49.729Z,0.70
2022-12-08T06:31:18.616Z,0.50
2022-12-08T06:33:46.203Z,1.73
2022-12-08T06:36:15.536Z,0.30
2022-12-08T06:38:43.868Z,1.47
2022-12-08T06:41:30.441Z,0.30
2022-12-08T06:43:57.747Z,0.57
2022-12-08T06:46:24.600Z,0.40
2022-12-08T06:48:51.443Z,0.70
2022-12-08T06:51:22.120Z,1.67
2022-12-08T06:53:49.054Z,0.43
2022-12-08T06:56:16.231Z,0.40
2022-12-08T06:58:46.200Z,0.33
2022-12-08T07:01:17.579Z,0.33
2022-12-08T07:03:44.767Z,0.40
2022-12-08T07:06:18.150Z,0.50
2022-12-08T07:08:45.047Z,0.30
2022-12-08T07:11:16.676Z,0.30
2022-12-08T07:13:47.935Z,0.30
2022-12-08T07:16:15.096Z,0.30
2022-12-08T07:18:43.105Z,0.40
2022-12-08T07:21:11.773Z,0.47
2022-12-08T07:23:39.398Z,0.40
2022-12-08T07:26:08.397Z,0.67
2022-12-08T07:28:37.356Z,0.30
2022-12-08T07:31:05.287Z,1.10
2022-12-08T07:33:52.297Z,0.30
2022-12-08T07:36:19.134Z,0.50
2022-12-08T07:38:46.045Z,1.40
2022-12-08T07:41:18.126Z,0.40
2022-12-08T07:43:45.735Z,2.73
2022-12-08T07:46:14.490Z,1.83
2022-12-08T07:48:42.139Z,1.57
2022-12-08T07:51:10.217Z,3.03
2022-12-08T07:53:42.563Z,0.83
2022-12-08T07:56:11.405Z,0.60
2022-12-08T07:58:38.805Z,1.80
2022-12-08T08:01:05.878Z,0.83
2022-12-08T08:03:33.276Z,0.40
2022-12-08T08:06:04.314Z,0.40
2022-12-08T08:08:32.109Z,0.40
2022-12-08T08:10:58.996Z,1.03
2022-12-08T08:13:25.841Z,0.40
2022-12-08T08:15:52.731Z,0.30
2022-12-08T08:18:19.880Z,0.30
2022-12-08T08:20:46.654Z,3.47
2022-12-08T08:23:13.494Z,2.47
2022-12-08T08:25:40.282Z,0.53
2022-12-08T08:28:45.914Z,1.37
2022-12-08T08:31:12.994Z,0.53
2022-12-08T08:33:39.933Z,1.23
2022-12-08T08:36:08.427Z,2.87
2022-12-08T08:38:36.708Z,0.67
2022-12-08T08:41:08.823Z,1.03
2022-12-08T08:43:55.449Z,3.77
2022-12-08T08:46:41.442Z,0.67
2022-12-08T08:49:08.377Z,1.23
2022-12-08T08:51:36.464Z,4.23
2022-12-08T08:54:21.565Z,5.20
2022-12-08T08:57:09.056Z,3.70
2022-12-08T08:59:36.036Z,0.77
2022-12-08T09:02:02.897Z,1.30
2022-12-08T09:04:29.946Z,2.87
2022-12-08T09:06:56.918Z,1.27
2022-12-08T09:09:23.806Z,4.53
2022-12-08T09:11:50.632Z,1.53
2022-12-08T09:14:17.488Z,3.47
2022-12-08T09:16:44.595Z,3.10
2022-12-08T09:19:11.579Z,2.00
2022-12-08T09:21:40.018Z,3.97
2022-12-08T09:24:08.408Z,0.53
2022-12-08T09:26:35.286Z,4.30
2022-12-08T09:29:02.151Z,2.77
2022-12-08T09:31:29.004Z,7.33
2022-12-08T09:33:55.901Z,6.40
2022-12-08T09:36:23.059Z,4.83
2022-12-08T09:38:51.161Z,5.30
2022-12-08T09:41:22.289Z,18.30
2022-12-08T09:44:19.384Z,11.20
2022-12-08T09:46:48.693Z,6.00
2022-12-08T09:49:18.469Z,2.47
2022-12-08T09:51:46.249Z,3.30
2022-12-08T09:54:35.813Z,5.50
2022-12-08T09:57:08.471Z,10.73
2022-12-08T09:59:35.890Z,2.83
2022-12-08T10:02:11.671Z,1.40
2022-12-08T10:04:39.014Z,3.43
2022-12-08T10:07:18.039Z,4.23
2022-12-08T10:10:03.931Z,1.03
2022-12-08T10:13:01.259Z,1.80
2022-12-08T10:16:00.445Z,4.40
2022-12-08T10:18:30.944Z,0.83
2022-12-08T10:21:20.579Z,2.10
2022-12-08T10:23:55.789Z,3.53
2022-12-08T10:26:22.797Z,3.83
2022-12-08T10:28:50.452Z,2.63
2022-12-08T10:31:36.233Z,2.07
2022-12-08T10:34:19.286Z,2.43
2022-12-08T10:37:08.966Z,1.57
2022-12-08T10:39:45.668Z,2.30
2022-12-08T10:42:17.887Z,2.70
2022-12-08T10:45:10.577Z,2.70
2022-12-08T10:48:14.775Z,7.93
2022-12-08T10:50:47.617Z,4.50
2022-12-08T10:53:25.419Z,3.23
2022-12-08T10:55:58.242Z,4.70
2022-12-08T10:58:45.168Z,6.10
2022-12-08T11:01:15.198Z,3.23
2022-12-08T11:03:55.272Z,3.00
2022-12-08T11:06:30.948Z,5.17
2022-12-08T11:09:00.756Z,5.90
2022-12-08T11:11:49.351Z,7.33
2022-12-08T11:14:23.115Z,10.07
2022-12-08T11:16:53.802Z,4.13
2022-12-08T11:19:21.942Z,5.43
2022-12-08T11:21:48.821Z,5.53
2022-12-08T11:24:15.504Z,8.50
2022-12-08T11:27:01.113Z,8.07
2022-12-08T11:29:31.052Z,3.70
2022-12-08T11:32:02.262Z,6.40
2022-12-08T11:34:42.163Z,6.53
2022-12-08T11:37:18.946Z,6.10
2022-12-08T11:39:50.198Z,7.97
2022-12-08T11:42:20.275Z,4.60
2022-12-08T11:44:52.342Z,4.03
2022-12-08T11:47:28.593Z,6.83
2022-12-08T11:50:27.445Z,3.87
2022-12-08T11:52:57.077Z,4.77
2022-12-08T11:55:33.789Z,7.37
2022-12-08T11:58:18.058Z,4.10
2022-12-08T12:00:45.089Z,6.00
2022-12-08T12:03:38.882Z,3.50
2022-12-08T12:06:30.873Z,5.20
2022-12-08T12:09:45.737Z,4.03
2022-12-08T12:12:34.865Z,6.53
2022-12-08T12:15:16.719Z,10.60
2022-12-08T12:17:50.672Z,9.50
2022-12-08T12:20:52.530Z,6.70
2022-12-08T12:23:32.303Z,5.77
2022-12-08T12:26:02.307Z,7.23
2022-12-08T12:28:43.200Z,8.13
2022-12-08T12:31:16.739Z,9.57
2022-12-08T12:33:46.459Z,6.43
2022-12-08T12:36:32.765Z,4.40
2022-12-08T12:39:01.177Z,8.23
2022-12-08T12:41:48.770Z,13.87
2022-12-08T12:44:15.583Z,13.40
2022-12-08T12:46:48.931Z,6.70
2022-12-08T12:49:40.744Z,11.53
2022-12-08T12:52:17.045Z,7.73
2022-12-08T12:54:49.967Z,9.53
2022-12-08T12:57:19.862Z,20.10
2022-12-08T12:59:55.252Z,15.93
2022-12-08T13:02:34.722Z,7.67
2022-12-08T13:05:47.551Z,7.40
2022-12-08T13:08:26.509Z,7.23
2022-12-08T13:11:04.621Z,10.37
2022-12-08T13:13:32.051Z,6.87
2022-12-08T13:16:18.927Z,9.03
2022-12-08T13:18:52.569Z,9.83
2022-12-08T13:21:22.978Z,13.37
2022-12-08T13:24:14.677Z,12.40
2022-12-08T13:27:11.476Z,6.90
2022-12-08T13:29:39.060Z,33.27
2022-12-08T13:32:08.813Z,12.33
2022-12-08T13:34:45.547Z,10.47
2022-12-08T13:37:12.442Z,5.80
2022-12-08T13:39:39.201Z,11.07
2022-12-08T13:42:12.340Z,6.90
2022-12-08T13:45:19.061Z,9.87
2022-12-08T13:47:59.579Z,16.70
2022-12-08T13:59:44.644Z,11.10
2022-12-08T14:02:42.226Z,7.63
2022-12-08T14:05:19.491Z,10.17
2022-12-08T14:08:01.482Z,7.67
2022-12-08T14:10:32.081Z,15.33
2022-12-08T14:13:10.989Z,11.17
2022-12-08T14:15:39.916Z,9.57
2022-12-08T14:18:26.148Z,8.07
2022-12-08T14:21:20.894Z,12.47
2022-12-08T14:23:48.839Z,13.20
2022-12-08T14:26:15.633Z,12.10
2022-12-08T14:29:01.685Z,13.33
2022-12-08T14:31:46.992Z,9.63
2022-12-08T14:34:13.909Z,15.53
2022-12-08T14:36:40.808Z,14.07
2022-12-08T14:39:27.467Z,18.57
2022-12-08T14:42:01.068Z,10.27
2022-12-08T14:44:33.205Z,15.37
2022-12-08T14:47:08.499Z,9.00
2022-12-08T14:49:39.960Z,13.67
2022-12-08T14:52:11.656Z,19.10
2022-12-08T14:54:57.865Z,25.07
2022-12-08T14:57:31.542Z,16.97
2022-12-08T15:00:06.618Z,19.13
2022-12-08T15:02:34.513Z,14.07
2022-12-08T15:05:03.306Z,15.67
2022-12-08T15:08:10.965Z,14.90
2022-12-08T15:10:39.967Z,19.63
2022-12-08T15:13:09.656Z,14.23
2022-12-08T15:15:57.770Z,16.83
2022-12-08T15:18:43.115Z,12.07
2022-12-08T15:21:13.073Z,10.47
2022-12-08T15:23:42.719Z,7.00
2022-12-08T15:26:28.295Z,10.30
2022-12-08T15:28:55.891Z,5.70
2022-12-08T15:31:22.894Z,21.07
2022-12-08T15:33:49.789Z,15.97
2022-12-08T15:36:16.608Z,16.63
2022-12-08T15:38:43.544Z,8.80
2022-12-08T15:41:14.982Z,10.73
2022-12-08T15:43:42.414Z,11.30
2022-12-08T15:46:09.601Z,12.03
2022-12-08T15:48:37.696Z,16.47
2022-12-08T15:51:04.631Z,14.47
2022-12-08T15:53:31.474Z,13.93
2022-12-08T15:58:56.046Z,9.73
2022-12-08T16:01:24.502Z,10.63
2022-12-08T16:09:38.608Z,5.37
2022-12-08T16:12:25.633Z,14.00
2022-12-08T16:17:40.909Z,7.03
2022-12-08T16:20:14.081Z,6.37
2022-12-08T16:23:13.057Z,11.13
2022-12-08T16:25:46.143Z,9.00
2022-12-08T16:28:52.281Z,10.83
2022-12-08T16:31:05.556Z,9.40
2022-12-08T16:33:54.043Z,6.43
2022-12-08T16:36:20.877Z,6.43
2022-12-08T16:38:47.631Z,7.07
2022-12-08T16:41:34.200Z,12.93
2022-12-08T16:44:05.496Z,4.90
2022-12-08T16:46:32.945Z,5.57
2022-12-08T16:48:59.798Z,12.37
2022-12-08T16:51:45.480Z,3.90
2022-12-08T16:54:12.389Z,4.37
2022-12-08T16:56:39.199Z,6.93
2022-12-08T16:59:06.074Z,9.77
2022-12-08T17:01:33.010Z,4.03
2022-12-08T17:04:31.160Z,6.53
2022-12-08T17:07:05.617Z,5.57
2022-12-08T17:09:32.591Z,6.60
2022-12-08T17:12:03.771Z,5.60
2022-12-08T17:14:35.691Z,3.60
2022-12-08T17:17:02.622Z,7.47
2022-12-08T17:19:29.490Z,11.03
2022-12-08T17:21:56.370Z,7.87
2022-12-08T17:24:25.189Z,10.30
2022-12-08T17:26:52.934Z,6.17
2022-12-08T17:29:19.902Z,7.90
2022-12-08T17:31:47.004Z,8.93
2022-12-08T17:34:13.926Z,10.33
2022-12-08T17:36:40.951Z,12.20
2022-12-08T17:39:13.349Z,7.60
2022-12-08T17:41:43.394Z,13.63
2022-12-08T17:44:16.398Z,8.83
2022-12-08T17:46:50.514Z,10.07
2022-12-08T17:49:25.394Z,7.40
2022-12-08T17:51:55.231Z,9.13
2022-12-08T17:54:40.873Z,8.40
2022-12-08T17:57:07.734Z,6.23
2022-12-08T17:59:34.566Z,8.63
2022-12-08T18:02:01.607Z,7.33
2022-12-08T18:04:29.103Z,7.30
2022-12-08T18:12:26.596Z,7.57
2022-12-08T18:15:12.241Z,4.47
2022-12-08T18:17:39.105Z,9.17
2022-12-08T18:20:06.921Z,9.60
2022-12-08T18:22:34.167Z,19.00
2022-12-08T18:25:01.054Z,13.17
2022-12-08T18:27:46.820Z,4.33
2022-12-08T18:30:16.929Z,6.90
2022-12-08T18:33:05.946Z,8.83
2022-12-08T18:35:33.647Z,16.20
2022-12-08T18:38:00.511Z,6.17
2022-12-08T18:40:28.405Z,9.63
2022-12-08T18:42:55.236Z,6.47
2022-12-08T18:45:22.859Z,6.37
2022-12-08T18:47:51.400Z,5.13
2022-12-08T18:50:18.614Z,9.27
2022-12-08T18:52:46.461Z,12.63
2022-12-08T18:55:14.773Z,9.27
2022-12-08T18:57:45.266Z,3.30
2022-12-08T19:00:15.864Z,3.13
2022-12-08T19:02:42.960Z,7.27
2022-12-08T19:05:11.724Z,5.63
2022-12-08T19:07:38.729Z,8.53
2022-12-08T19:10:06.725Z,7.17
2022-12-08T19:12:52.958Z,3.87
2022-12-08T19:15:20.653Z,3.03
2022-12-08T19:17:47.446Z,5.67
2022-12-08T19:20:14.636Z,4.50
2022-12-08T19:25:44.840Z,5.40
2022-12-08T19:28:11.597Z,8.57
2022-12-08T19:30:38.518Z,5.73
2022-12-08T19:33:05.289Z,6.70
2022-12-08T19:35:32.164Z,2.67
2022-12-08T19:37:58.928Z,5.00
2022-12-08T19:40:44.142Z,5.70
2022-12-08T19:43:37.501Z,5.50
2022-12-08T19:46:04.552Z,1.40
2022-12-08T19:48:31.511Z,4.63
2022-12-08T19:50:58.824Z,3.87
2022-12-08T19:53:25.676Z,9.60
2022-12-08T19:56:10.951Z,5.13
2022-12-08T19:58:37.796Z,5.83
2022-12-08T20:01:04.701Z,2.83
2022-12-08T20:03:31.627Z,2.43
2022-12-08T20:05:58.577Z,3.03
2022-12-08T20:08:25.435Z,3.30
2022-12-08T20:10:56.043Z,6.10
2022-12-08T20:13:41.237Z,2.13
2022-12-08T20:16:08.656Z,4.67
2022-12-08T20:18:40.036Z,3.97
2022-12-08T20:21:07.006Z,6.07
2022-12-08T20:23:34.665Z,7.53
2022-12-08T20:26:05.697Z,4.67
2022-12-08T20:28:34.419Z,7.83
2022-12-08T20:31:01.405Z,4.47
2022-12-08T20:33:28.521Z,2.13
2022-12-08T20:36:06.170Z,4.10
2022-12-08T20:38:53.022Z,4.23
2022-12-08T20:41:20.474Z,8.00
2022-12-08T20:43:48.082Z,7.80
2022-12-08T20:46:17.907Z,5.27
2022-12-08T20:49:04.616Z,7.23
2022-12-08T20:51:33.528Z,3.03
2022-12-08T20:54:00.948Z,3.50
2022-12-08T20:56:28.267Z,3.60
2022-12-08T20:58:56.251Z,9.63
2022-12-08T21:01:24.467Z,5.40
2022-12-08T21:03:52.166Z,5.13
2022-12-08T21:06:23.903Z,7.43
2022-12-08T21:08:51.404Z,5.47
2022-12-08T21:11:18.925Z,2.27
2022-12-08T21:13:46.985Z,5.10
2022-12-08T21:16:15.768Z,7.67
2022-12-08T21:18:42.862Z,3.07
2022-12-08T21:21:13.088Z,4.63
2022-12-08T21:24:00.253Z,1.00
2022-12-08T21:26:27.494Z,6.63
2022-12-08T21:28:55.727Z,2.43
2022-12-08T21:31:22.902Z,3.97
2022-12-08T21:33:49.930Z,10.60
2022-12-08T21:36:19.795Z,4.30
2022-12-08T21:41:50.707Z,4.30
2022-12-08T21:44:18.792Z,1.70
2022-12-08T21:46:46.075Z,4.87
2022-12-08T21:49:13.529Z,4.37
2022-12-08T21:51:42.368Z,3.77
2022-12-08T21:54:18.037Z,2.90
2022-12-08T21:56:47.260Z,1.87
2022-12-08T21:59:14.136Z,4.93
2022-12-08T22:02:01.203Z,3.87
2022-12-08T22:04:28.551Z,3.87
2022-12-08T22:06:55.497Z,2.20
2022-12-08T22:09:22.796Z,4.77
2022-12-08T22:12:08.194Z,3.27
2022-12-08T22:14:35.259Z,2.77
2022-12-08T22:17:02.259Z,4.73
2022-12-08T22:19:30.768Z,1.07
2022-12-08T22:21:57.784Z,2.63
2022-12-08T22:24:24.887Z,1.10
2022-12-08T22:27:10.507Z,4.87
2022-12-08T22:29:37.318Z,4.17
2022-12-08T22:32:04.255Z,2.83
2022-12-08T22:34:49.502Z,3.37
2022-12-08T22:37:16.291Z,2.57
2022-12-08T22:39:43.203Z,2.83
2022-12-08T22:42:10.081Z,2.67
2022-12-08T22:44:36.799Z,2.03
2022-12-08T22:47:03.731Z,1.03
2022-12-08T22:49:31.666Z,2.40
2022-12-08T22:51:59.008Z,2.40
2022-12-08T22:54:26.731Z,2.57
2022-12-08T22:56:53.598Z,4.47
2022-12-08T22:59:20.557Z,2.27
2022-12-08T23:01:47.494Z,1.23
2022-12-08T23:04:17.642Z,3.50
2022-12-08T23:06:45.576Z,1.70
2022-12-08T23:09:12.744Z,1.50
2022-12-08T23:11:39.799Z,5.03
2022-12-08T23:14:06.612Z,2.60
2022-12-08T23:16:33.648Z,1.97
2022-12-08T23:19:00.587Z,4.30
2022-12-08T23:21:27.615Z,1.70
2022-12-08T23:23:54.729Z,2.47
2022-12-08T23:26:27.517Z,1.97
2022-12-08T23:28:55.210Z,2.80
2022-12-08T23:31:22.950Z,0.93
2022-12-08T23:33:50.544Z,3.80
2022-12-08T23:36:19.018Z,2.47
2022-12-08T23:38:46.219Z,0.90
2022-12-08T23:41:50.936Z,4.93
2022-12-08T23:44:18.640Z,1.33
2022-12-08T23:46:45.537Z,0.77
2022-12-08T23:49:12.461Z,1.33
2022-12-08T23:51:39.625Z,0.60
2022-12-08T23:54:06.705Z,1.50
2022-12-08T23:56:33.724Z,3.60
2022-12-08T23:59:01.194Z,2.00
